Ana Sayfa
METAR-TAF:

METAR-TAF

Havaalanları :

Kit Carson County Airport

Burlington, Colorado, Amerika Birleşik Devletleri

Enlem: 39-14-32N, Boylam: 102-16-58W, yükseklik: 1285 m

Güncel hava durumu gözlemi

Rapor saat 23:27 UTC de 28 dakika önce yapıldı.
Rüzgar doğu/güneydoğudan 20 kt ve 31 kt'a kadar ani rüzgarlar
Sıcaklık 24°C
Nem 69%
Basınç 1016 hPa
Görüş mesafesi: 16.1 km
2000 ft yükseklikte parçalı bulutlu
2400 ft yükseklikte parçalı çok bulutlu
3200 ft yükseklikte parçalı çok bulutlu

METAR: KITR 232327Z AUTO 11020G31KT 10SM SCT020 BKN024 BKN032 24/18 A3000 RMK AO2 PK WND 11031/2326 T02390183

Saat: 17:55 (23:55 UTC)


TAF: eksik

4.000'den fazla havaalanı için hava durumu gözlemleri ve tahminleri (METAR ve TAF raporları).

Kullanılabilir istasyonlar harita üzerinde sarı ve kırmızı noktalarla gösterilir.

İstasyonun adını görmek için fareyi noktanın üzerinde gezdirin.

Sonrasında hava gözlem ve tahminlerini görmek için tıklayın.

Haritayı değiştirmek için: yaklaştırmak için siyah artı işaretli yeşil düğmeye ve uzaklaştırmak için de eksi işaretli düğmeye hızla tıklayın; bitişik haritalar için yeşil okları kullanın.


METAR-TAF: